Ryuhomaru — JD2639 — position and weather

sailwx.info

Track history (hours):
 
Tides and Currents Weather Stations Pressure Air Temp Water Temp Dewpoint Dewpoint Depression Visibility Wind Speed Wind Dir Waves Ship Positions

Ryuhomaru

Last reported at 2016-Apr-30 07:31 UTC. Time now 2016-May-01 17:30 UTC.
Position N 34°33' E 135°27'.

Length 42 m; draft 3.5 m.

Type: Tug. MMSI: 431000586.

Date/timePositionNaut miles runAvg speedWind from/ knotsBaromVisibWave heightAir tempDewpointWater temp
2016-Apr-30 07:31N 34°33' E 135°27'5 5.7
2016-Apr-30 06:33N 34°39' E 135°26'2 2.1
2016-Apr-30 05:33N 34°38' E 135°24'5 5.0
2016-Apr-30 04:33N 34°33' E 135°25'2 1.4
2016-Apr-30 03:21N 34°33' E 135°27'0 0.0
2016-Apr-30 02:33N 34°33' E 135°27'0 0.0
2016-Apr-30 01:33N 34°33' E 135°27'3 0.1
2016-Apr-29 04:33N 34°33' E 135°24'1 0.7
2016-Apr-29 03:30N 34°34' E 135°24'3 0.8
2016-Apr-28 23:13N 34°31' E 135°24'1 2.2
2016-Apr-28 22:33N 34°32' E 135°24'2 2.0
2016-Apr-28 21:32N 34°33' E 135°26'1 0.1
2016-Apr-28 08:33N 34°33' E 135°27'0 0.0
2016-Apr-28 07:24N 34°33' E 135°27'0 0.0
2016-Apr-28 06:33N 34°33' E 135°27'0 0.0
2016-Apr-28 05:29N 34°33' E 135°27'0 0.0
2016-Apr-28 04:33N 34°33' E 135°27'0 0.0
2016-Apr-28 03:07N 34°33' E 135°27'0 0.7
2016-Apr-28 02:33N 34°33' E 135°26'0 0.4
2016-Apr-28 01:33N 34°33' E 135°26'5 5.4
2016-Apr-28 00:33N 34°36' E 135°20'6 5.2
2016-Apr-27 23:21N 34°33' E 135°27'0 0.0
2016-Apr-27 07:25N 34°33' E 135°27'0 0.0
2016-Apr-27 06:27N 34°33' E 135°27'0 0.0
2016-Apr-27 04:28N 34°33' E 135°27'2 0.8
2016-Apr-27 02:17N 34°34' E 135°24'4 5.2
2016-Apr-27 01:32N 34°33' E 135°20'1 0.7
2016-Apr-27 00:33N 34°34' E 135°19'6 5.6
2016-Apr-26 23:34N 34°33' E 135°26'0 0.1
2016-Apr-26 22:34N 34°33' E 135°26'  
2016-Apr-22 06:33N 34°33' E 135°27'0 0.0
2016-Apr-22 05:33N 34°33' E 135°27'0 0.0
2016-Apr-22 04:32N 34°33' E 135°27'0 0.0
2016-Apr-22 03:33N 34°33' E 135°27'0 0.0
2016-Apr-22 02:33N 34°33' E 135°27'0 0.0
2016-Apr-22 01:33N 34°33' E 135°27'0 0.0
2016-Apr-22 00:33N 34°33' E 135°27'1 0.8
2016-Apr-21 23:16N 34°33' E 135°25'2 3.2
2016-Apr-21 22:32N 34°33' E 135°23'3 2.8
2016-Apr-21 21:32N 34°33' E 135°26'1 0.5
2016-Apr-21 20:33N 34°33' E 135°27'0 0.0
2016-Apr-21 06:22N 34°33' E 135°27'0 0.0
2016-Apr-21 05:33N 34°33' E 135°27'0 0.0
2016-Apr-21 04:33N 34°33' E 135°27'0 0.0
2016-Apr-21 03:24N 34°33' E 135°27'0 0.0
2016-Apr-21 02:31N 34°33' E 135°27'0 0.0
2016-Apr-21 01:33N 34°33' E 135°27'0 0.0
2016-Apr-21 00:30N 34°33' E 135°27'1 1.2
2016-Apr-20 23:32N 34°33' E 135°25'4 4.1
2016-Apr-20 22:33N 34°33' E 135°20'4 3.7
2016-Apr-20 21:33N 34°33' E 135°25'1 1.4
2016-Apr-20 20:32N 34°33' E 135°27'  
Track history (hours):
 
Tides and Currents Weather Stations Pressure Air Temp Water Temp Dewpoint Dewpoint Depression Visibility Wind Speed Wind Dir Waves Ship Positions

Ryuhomaru

Last reported at 2016-Apr-30 07:31 UTC. Time now 2016-May-01 17:30 UTC.
Position N 34°33' E 135°27'.

Length 42 m; draft 3.5 m.

Type: Tug. MMSI: 431000586.

Date/timePositionNaut miles runAvg speedWind from/ knotsBaromVisibWave heightAir tempDewpointWater temp
2016-Apr-30 07:31N 34°33' E 135°27'5 5.7
2016-Apr-30 06:33N 34°39' E 135°26'2 2.1
2016-Apr-30 05:33N 34°38' E 135°24'5 5.0
2016-Apr-30 04:33N 34°33' E 135°25'2 1.4
2016-Apr-30 03:21N 34°33' E 135°27'0 0.0
2016-Apr-30 02:33N 34°33' E 135°27'0 0.0
2016-Apr-30 01:33N 34°33' E 135°27'3 0.1
2016-Apr-29 04:33N 34°33' E 135°24'1 0.7
2016-Apr-29 03:30N 34°34' E 135°24'3 0.8
2016-Apr-28 23:13N 34°31' E 135°24'1 2.2
2016-Apr-28 22:33N 34°32' E 135°24'2 2.0
2016-Apr-28 21:32N 34°33' E 135°26'1 0.1
2016-Apr-28 08:33N 34°33' E 135°27'0 0.0
2016-Apr-28 07:24N 34°33' E 135°27'0 0.0
2016-Apr-28 06:33N 34°33' E 135°27'0 0.0
2016-Apr-28 05:29N 34°33' E 135°27'0 0.0
2016-Apr-28 04:33N 34°33' E 135°27'0 0.0
2016-Apr-28 03:07N 34°33' E 135°27'0 0.7
2016-Apr-28 02:33N 34°33' E 135°26'0 0.4
2016-Apr-28 01:33N 34°33' E 135°26'5 5.4
2016-Apr-28 00:33N 34°36' E 135°20'6 5.2
2016-Apr-27 23:21N 34°33' E 135°27'0 0.0
2016-Apr-27 07:25N 34°33' E 135°27'0 0.0
2016-Apr-27 06:27N 34°33' E 135°27'0 0.0
2016-Apr-27 04:28N 34°33' E 135°27'2 0.8
2016-Apr-27 02:17N 34°34' E 135°24'4 5.2
2016-Apr-27 01:32N 34°33' E 135°20'1 0.7
2016-Apr-27 00:33N 34°34' E 135°19'6 5.6
2016-Apr-26 23:34N 34°33' E 135°26'0 0.1
2016-Apr-26 22:34N 34°33' E 135°26'  
2016-Apr-22 06:33N 34°33' E 135°27'0 0.0
2016-Apr-22 05:33N 34°33' E 135°27'0 0.0
2016-Apr-22 04:32N 34°33' E 135°27'0 0.0
2016-Apr-22 03:33N 34°33' E 135°27'0 0.0
2016-Apr-22 02:33N 34°33' E 135°27'0 0.0
2016-Apr-22 01:33N 34°33' E 135°27'0 0.0
2016-Apr-22 00:33N 34°33' E 135°27'1 0.8
2016-Apr-21 23:16N 34°33' E 135°25'2 3.2
2016-Apr-21 22:32N 34°33' E 135°23'3 2.8
2016-Apr-21 21:32N 34°33' E 135°26'1 0.5
2016-Apr-21 20:33N 34°33' E 135°27'0 0.0
2016-Apr-21 06:22N 34°33' E 135°27'0 0.0
2016-Apr-21 05:33N 34°33' E 135°27'0 0.0
2016-Apr-21 04:33N 34°33' E 135°27'0 0.0
2016-Apr-21 03:24N 34°33' E 135°27'0 0.0
2016-Apr-21 02:31N 34°33' E 135°27'0 0.0
2016-Apr-21 01:33N 34°33' E 135°27'0 0.0
2016-Apr-21 00:30N 34°33' E 135°27'1 1.2
2016-Apr-20 23:32N 34°33' E 135°25'4 4.1
2016-Apr-20 22:33N 34°33' E 135°20'4 3.7
2016-Apr-20 21:33N 34°33' E 135°25'1 1.4
2016-Apr-20 20:32N 34°33' E 135°27'  

Dump ship's entire track history